createdAt,value
2019-05-17T00:02:22.649Z,3.67
2019-05-17T00:05:28.203Z,3.37
2019-05-17T00:08:34.942Z,2.83
2019-05-17T00:11:39.645Z,3.00
2019-05-17T00:14:44.399Z,3.10
2019-05-17T00:17:49.586Z,3.20
2019-05-17T00:20:56.987Z,3.70
2019-05-17T00:24:01.949Z,3.50
2019-05-17T00:27:07.259Z,3.10
2019-05-17T00:30:12.649Z,2.90
2019-05-17T00:33:17.726Z,3.20
2019-05-17T00:36:22.470Z,3.43
2019-05-17T00:39:27.817Z,3.27
2019-05-17T00:42:32.946Z,3.07
2019-05-17T00:45:38.515Z,3.13
2019-05-17T00:48:43.504Z,3.37
2019-05-17T00:51:48.267Z,3.00
2019-05-17T00:54:52.987Z,2.90
2019-05-17T00:58:01.259Z,3.13
2019-05-17T01:01:08.432Z,3.53
2019-05-17T01:04:13.336Z,2.87
2019-05-17T01:07:18.097Z,3.27
2019-05-17T01:10:23.312Z,3.53
2019-05-17T01:13:28.783Z,3.17
2019-05-17T01:16:33.539Z,2.90
2019-05-17T01:19:41.113Z,3.30
2019-05-17T01:22:47.404Z,2.93
2019-05-17T01:25:52.447Z,3.40
2019-05-17T01:28:57.739Z,3.20
2019-05-17T01:32:02.856Z,3.03
2019-05-17T01:35:08.301Z,3.53
2019-05-17T01:38:13.033Z,3.07
2019-05-17T01:41:17.885Z,3.40
2019-05-17T01:44:22.614Z,3.10
2019-05-17T01:47:27.438Z,3.47
2019-05-17T01:50:32.181Z,2.83
2019-05-17T01:53:38.034Z,3.10
2019-05-17T01:56:46.177Z,3.60
2019-05-17T01:59:50.932Z,3.30
2019-05-17T02:02:57.719Z,3.30
2019-05-17T02:06:02.649Z,3.50
2019-05-17T02:09:07.755Z,3.23
2019-05-17T02:12:12.476Z,3.30
2019-05-17T02:15:18.086Z,3.60
2019-05-17T02:18:22.879Z,2.77
2019-05-17T02:21:27.650Z,3.77
2019-05-17T02:24:32.540Z,3.97
2019-05-17T02:27:41.266Z,3.70
2019-05-17T02:30:45.718Z,3.87
2019-05-17T02:33:53.403Z,3.80
2019-05-17T02:36:57.189Z,3.90
2019-05-17T02:40:07.706Z,3.87
2019-05-17T02:43:09.144Z,3.60
2019-05-17T02:46:13.946Z,3.97
2019-05-17T02:49:19.025Z,3.47
2019-05-17T02:52:25.046Z,3.70
2019-05-17T02:55:32.248Z,3.03
2019-05-17T02:58:36.224Z,3.40
2019-05-17T03:01:44.167Z,3.30
2019-05-17T03:04:48.190Z,3.67
2019-05-17T03:07:53.090Z,3.27
2019-05-17T03:10:57.918Z,3.37
2019-05-17T03:14:04.239Z,3.20
2019-05-17T03:17:09.972Z,3.67
2019-05-17T03:20:15.341Z,3.70
2019-05-17T03:23:23.194Z,3.57
2019-05-17T03:26:26.662Z,3.80
2019-05-17T03:29:33.447Z,3.60
2019-05-17T03:32:46.447Z,3.87
2019-05-17T03:35:47.343Z,4.67
2019-05-17T03:38:53.410Z,4.30
2019-05-17T03:41:58.912Z,3.63
2019-05-17T03:45:03.886Z,4.33
2019-05-17T03:48:08.738Z,4.70
2019-05-17T03:51:13.537Z,4.70
2019-05-17T03:54:22.434Z,6.03
2019-05-17T03:57:26.162Z,5.67
2019-05-17T04:00:34.862Z,5.57
2019-05-17T04:03:37.601Z,5.23
2019-05-17T04:06:43.589Z,8.33
2019-05-17T04:09:49.109Z,8.53
2019-05-17T04:12:53.951Z,9.57
2019-05-17T04:15:58.724Z,10.33
2019-05-17T04:19:03.764Z,9.47
2019-05-17T04:22:08.600Z,9.87
2019-05-17T04:25:14.436Z,10.53
2019-05-17T04:28:22.640Z,10.30
2019-05-17T04:31:26.127Z,10.53
2019-05-17T04:34:33.571Z,9.80
2019-05-17T04:37:38.685Z,10.33
2019-05-17T04:40:43.750Z,11.00
2019-05-17T04:43:48.485Z,10.60
2019-05-17T04:46:54.614Z,11.80
2019-05-17T04:49:59.413Z,11.30
2019-05-17T04:53:04.365Z,12.20
2019-05-17T04:56:09.419Z,11.37
2019-05-17T04:59:15.327Z,10.97
2019-05-17T05:02:23.398Z,11.73
2019-05-17T05:05:26.581Z,12.10
2019-05-17T05:08:33.028Z,11.30
2019-05-17T05:11:51.928Z,11.50
2019-05-17T05:14:44.313Z,12.23
2019-05-17T05:17:49.067Z,12.00
2019-05-17T05:20:54.891Z,12.20
2019-05-17T05:24:02.323Z,12.30
2019-05-17T05:27:06.800Z,12.23
2019-05-17T05:30:12.614Z,12.47
2019-05-17T05:33:18.093Z,11.67
2019-05-17T05:36:23.103Z,12.27
2019-05-17T05:39:27.873Z,12.10
2019-05-17T05:42:32.740Z,12.77
2019-05-17T05:45:37.803Z,12.90
2019-05-17T05:48:42.947Z,13.20
2019-05-17T05:51:48.707Z,13.17
2019-05-17T05:54:53.773Z,13.23
2019-05-17T05:57:58.547Z,13.03
2019-05-17T06:01:03.536Z,12.57
2019-05-17T06:04:08.377Z,13.37
2019-05-17T06:07:13.519Z,13.00
2019-05-17T06:10:18.747Z,14.00
2019-05-17T06:13:23.890Z,13.60
2019-05-17T06:16:28.707Z,13.83
2019-05-17T06:19:33.487Z,13.40
2019-05-17T06:22:38.232Z,13.77
2019-05-17T06:25:43.992Z,13.27
2019-05-17T06:28:48.933Z,13.73
2019-05-17T06:31:54.021Z,14.57
2019-05-17T06:40:32.312Z,14.87
2019-05-17T06:43:41.490Z,14.67
2019-05-17T06:46:47.860Z,14.53
2019-05-17T06:49:53.969Z,14.10
2019-05-17T06:53:02.910Z,14.33
2019-05-17T06:56:07.081Z,14.43
2019-05-17T06:59:12.163Z,13.70
2019-05-17T07:02:20.786Z,15.03
2019-05-17T07:05:29.683Z,14.17
2019-05-17T07:08:40.223Z,14.70
2019-05-17T07:12:30.668Z,15.10
2019-05-17T07:15:47.939Z,14.50
2019-05-17T07:19:35.204Z,13.90
2019-05-17T07:26:12.755Z,14.37
2019-05-17T07:29:19.409Z,14.53
2019-05-17T07:32:24.307Z,14.30
2019-05-17T07:35:30.034Z,13.13
2019-05-17T07:38:35.317Z,13.83
2019-05-17T07:41:45.746Z,13.40
2019-05-17T07:44:57.021Z,12.63
2019-05-17T07:48:03.101Z,12.40
2019-05-17T07:51:10.128Z,12.20
2019-05-17T07:54:19.694Z,11.80
2019-05-17T07:57:24.871Z,12.57
2019-05-17T08:00:51.427Z,12.30
2019-05-17T08:04:02.355Z,11.93
2019-05-17T08:07:10.411Z,10.97
2019-05-17T08:10:23.882Z,10.93
2019-05-17T08:13:39.853Z,11.00
2019-05-17T08:16:46.446Z,10.90
2019-05-17T08:19:51.306Z,11.30
2019-05-17T08:23:05.124Z,10.70
2019-05-17T08:26:13.837Z,11.43
2019-05-17T08:29:30.511Z,11.30
2019-05-17T08:33:02.704Z,11.17
2019-05-17T08:36:23.050Z,11.50
2019-05-17T08:40:01.284Z,10.87
2019-05-17T08:43:16.491Z,11.33
2019-05-17T08:46:27.004Z,12.10
2019-05-17T08:49:35.126Z,12.37
2019-05-17T08:52:50.415Z,10.87
2019-05-17T08:56:01.923Z,9.90
2019-05-17T08:59:09.431Z,10.13
2019-05-17T09:02:14.700Z,9.10
2019-05-17T09:05:30.078Z,10.37
2019-05-17T09:08:34.241Z,9.67
2019-05-17T09:11:39.614Z,8.83
2019-05-17T09:14:44.879Z,7.60
2019-05-17T09:17:50.029Z,8.63
2019-05-17T09:21:21.702Z,8.50
2019-05-17T09:24:26.838Z,7.23
2019-05-17T09:27:31.953Z,6.60
2019-05-17T09:30:36.889Z,5.70
2019-05-17T09:33:49.721Z,5.23
2019-05-17T09:36:54.784Z,5.90
2019-05-17T09:40:00.093Z,6.00
2019-05-17T09:43:05.898Z,6.30
2019-05-17T09:46:11.143Z,6.23
2019-05-17T09:49:27.288Z,5.33
2019-05-17T09:52:33.187Z,5.10
2019-05-17T09:55:39.774Z,6.77
2019-05-17T09:58:44.800Z,7.07
2019-05-17T10:05:31.309Z,7.30
2019-05-17T10:08:38.929Z,7.40
2019-05-17T10:11:55.602Z,7.40
2019-05-17T10:15:04.501Z,7.17
2019-05-17T10:18:46.875Z,8.20
2019-05-17T10:29:55.420Z,8.57
2019-05-17T10:33:15.069Z,8.10
2019-05-17T10:36:34.966Z,7.53
2019-05-17T10:39:57.742Z,7.13
2019-05-17T10:43:22.726Z,6.77
2019-05-17T10:47:19.501Z,7.40
2019-05-17T10:51:09.652Z,7.17
2019-05-17T10:54:20.694Z,7.07
2019-05-17T10:57:32.294Z,6.30
2019-05-17T11:00:41.180Z,7.93
2019-05-17T11:03:50.252Z,7.27
2019-05-17T11:07:38.092Z,7.40
2019-05-17T11:10:44.949Z,7.27
2019-05-17T11:13:53.814Z,6.90
2019-05-17T11:17:02.685Z,7.47
2019-05-17T11:24:05.678Z,6.70
2019-05-17T11:27:10.682Z,8.80
2019-05-17T11:30:15.993Z,8.50
2019-05-17T11:33:20.721Z,8.33
2019-05-17T11:36:25.722Z,7.67
2019-05-17T11:39:30.731Z,7.10
2019-05-17T11:42:35.824Z,7.67
2019-05-17T11:45:40.797Z,7.10
2019-05-17T11:48:45.565Z,7.07
2019-05-17T11:51:50.304Z,7.23
2019-05-17T11:54:55.207Z,7.10
2019-05-17T11:57:59.926Z,6.53
2019-05-17T12:01:04.977Z,5.93
2019-05-17T12:04:10.068Z,6.80
2019-05-17T12:07:14.998Z,7.23
2019-05-17T12:10:20.069Z,7.77
2019-05-17T12:13:25.260Z,7.60
2019-05-17T12:16:30.373Z,8.10
2019-05-17T12:19:37.276Z,6.30
2019-05-17T12:22:42.860Z,6.00
2019-05-17T12:25:47.904Z,7.10
2019-05-17T12:28:53.002Z,7.43
2019-05-17T12:31:58.018Z,6.77
2019-05-17T12:35:03.395Z,5.87
2019-05-17T12:38:08.372Z,5.93
2019-05-17T12:41:13.123Z,6.40
2019-05-17T12:44:17.872Z,6.00
2019-05-17T12:47:22.601Z,6.70
2019-05-17T12:50:27.359Z,6.37
2019-05-17T12:53:32.369Z,5.83
2019-05-17T12:56:37.139Z,5.70
2019-05-17T12:59:41.865Z,5.70
2019-05-17T13:02:46.616Z,6.57
2019-05-17T13:05:51.416Z,6.30
2019-05-17T13:08:56.471Z,6.10
2019-05-17T13:12:01.203Z,6.17
2019-05-17T13:15:06.670Z,6.20
2019-05-17T13:18:11.690Z,5.57
2019-05-17T13:21:16.803Z,5.80
2019-05-17T13:24:21.609Z,6.30
2019-05-17T13:27:27.561Z,6.03
2019-05-17T13:30:32.754Z,4.73
2019-05-17T13:33:37.821Z,5.73
2019-05-17T13:36:42.625Z,4.50
2019-05-17T13:39:47.813Z,4.43
2019-05-17T13:42:53.004Z,4.67
2019-05-17T13:45:57.793Z,5.23
2019-05-17T13:49:03.778Z,4.90
2019-05-17T13:52:08.634Z,5.93
2019-05-17T13:55:13.822Z,4.90
2019-05-17T13:58:18.666Z,5.20
2019-05-17T14:01:23.418Z,5.20
2019-05-17T14:04:28.501Z,4.80
2019-05-17T14:07:33.273Z,5.23
2019-05-17T14:10:38.033Z,5.47
2019-05-17T14:13:42.747Z,5.50
2019-05-17T14:16:47.519Z,5.93
2019-05-17T14:19:52.566Z,4.67
2019-05-17T14:22:58.177Z,5.20
2019-05-17T14:26:03.379Z,5.00
2019-05-17T14:29:08.467Z,5.60
2019-05-17T14:32:14.258Z,5.63
2019-05-17T14:35:19.699Z,4.30
2019-05-17T14:38:24.460Z,5.03
2019-05-17T14:41:29.591Z,4.60
2019-05-17T14:44:34.418Z,5.00
2019-05-17T14:47:39.416Z,4.40
2019-05-17T14:50:44.170Z,4.30
2019-05-17T14:53:49.348Z,4.00
2019-05-17T14:56:54.288Z,4.20
2019-05-17T14:59:59.622Z,4.33
2019-05-17T15:03:07.456Z,3.93
2019-05-17T15:06:11.236Z,4.27
2019-05-17T15:09:15.997Z,4.23
2019-05-17T15:12:28.158Z,4.00
2019-05-17T15:15:28.057Z,4.67
2019-05-17T15:18:33.143Z,4.90
2019-05-17T15:21:38.129Z,4.23
2019-05-17T15:24:42.942Z,4.30
2019-05-17T15:27:47.904Z,4.40
2019-05-17T15:30:52.723Z,4.20
2019-05-17T15:33:57.558Z,4.23
2019-05-17T15:37:02.363Z,4.10
2019-05-17T15:40:07.701Z,4.13
2019-05-17T15:43:12.773Z,3.87
2019-05-17T15:46:17.603Z,3.80
2019-05-17T15:49:22.809Z,4.53
2019-05-17T15:52:27.577Z,3.97
2019-05-17T15:55:32.477Z,4.50
2019-05-17T15:58:37.490Z,4.80
2019-05-17T16:01:42.586Z,4.67
2019-05-17T16:04:47.576Z,4.97
2019-05-17T16:07:53.705Z,5.50
2019-05-17T16:10:58.602Z,5.20
2019-05-17T16:14:04.093Z,4.73
2019-05-17T16:17:08.932Z,5.50
2019-05-17T16:20:16.725Z,4.90
2019-05-17T16:23:23.833Z,5.60
2019-05-17T16:26:28.699Z,4.57
2019-05-17T16:29:33.726Z,4.50
2019-05-17T16:32:38.863Z,5.50
2019-05-17T16:35:43.912Z,5.17
2019-05-17T16:38:49.582Z,5.53
2019-05-17T16:41:54.487Z,5.43
2019-05-17T16:44:59.275Z,5.07
2019-05-17T16:48:04.417Z,5.30
2019-05-17T16:51:09.480Z,5.20
2019-05-17T16:54:14.343Z,4.70
2019-05-17T16:57:19.176Z,4.80
2019-05-17T17:00:33.658Z,4.93
2019-05-17T17:03:44.152Z,4.90
2019-05-17T17:06:46.382Z,4.90
2019-05-17T17:09:51.234Z,5.40
2019-05-17T17:12:56.144Z,15.80
2019-05-17T17:16:00.969Z,4.97
2019-05-17T17:19:07.670Z,5.00
2019-05-17T17:22:12.924Z,5.10
2019-05-17T17:25:17.905Z,4.63
2019-05-17T17:28:25.512Z,4.40
2019-05-17T17:31:29.795Z,4.43
2019-05-17T17:34:34.934Z,4.30
2019-05-17T17:37:39.789Z,3.50
2019-05-17T17:40:44.579Z,3.13
2019-05-17T17:43:57.917Z,2.83
2019-05-17T17:47:00.562Z,3.00
2019-05-17T17:50:05.961Z,2.70
2019-05-17T17:53:10.873Z,2.80
2019-05-17T17:56:15.942Z,3.23
2019-05-17T17:59:21.073Z,3.00
2019-05-17T18:02:25.905Z,2.80
2019-05-17T18:05:30.732Z,2.70
2019-05-17T18:08:35.795Z,2.90
2019-05-17T18:11:40.991Z,3.20
2019-05-17T18:14:45.805Z,3.10
2019-05-17T18:17:50.620Z,3.40
2019-05-17T18:20:55.999Z,2.43
2019-05-17T18:24:01.377Z,2.70
2019-05-17T18:27:06.379Z,2.60
2019-05-17T18:30:11.611Z,2.40
2019-05-17T18:33:16.351Z,2.10
2019-05-17T18:36:21.238Z,2.10
2019-05-17T18:39:26.081Z,2.33
2019-05-17T18:42:30.984Z,2.33
2019-05-17T18:45:36.269Z,2.53
2019-05-17T18:48:41.258Z,2.50
2019-05-17T18:51:46.138Z,2.30
2019-05-17T18:54:51.662Z,2.40
2019-05-17T18:57:56.644Z,2.10
2019-05-17T19:01:02.093Z,2.40
2019-05-17T19:04:07.402Z,2.40
2019-05-17T19:07:12.287Z,2.47
2019-05-17T19:10:17.373Z,2.03
2019-05-17T19:13:25.127Z,2.20
2019-05-17T19:16:30.297Z,2.13
2019-05-17T19:19:36.556Z,2.50
2019-05-17T19:22:41.465Z,2.30
2019-05-17T19:25:46.549Z,2.50
2019-05-17T19:28:54.369Z,2.20
2019-05-17T19:31:59.187Z,2.57
2019-05-17T19:35:04.310Z,2.07
2019-05-17T19:38:09.517Z,2.00
2019-05-17T19:41:14.811Z,2.40
2019-05-17T19:44:21.383Z,2.00
2019-05-17T19:47:26.190Z,2.30
2019-05-17T19:50:31.630Z,2.70
2019-05-17T19:53:36.493Z,2.80
2019-05-17T19:56:41.393Z,2.57
2019-05-17T19:59:46.249Z,2.37
2019-05-17T20:02:52.120Z,2.10
2019-05-17T20:05:57.261Z,2.33
2019-05-17T20:09:02.152Z,2.70
2019-05-17T20:12:08.726Z,2.70
2019-05-17T20:15:17.931Z,2.37
2019-05-17T20:18:20.354Z,2.47
2019-05-17T20:21:25.450Z,2.60
2019-05-17T20:24:30.605Z,2.97
2019-05-17T20:27:35.399Z,2.30
2019-05-17T20:30:40.578Z,2.30
2019-05-17T20:33:45.893Z,2.30
2019-05-17T20:36:50.925Z,3.03
2019-05-17T20:39:56.143Z,2.60
2019-05-17T20:43:00.963Z,2.50
2019-05-17T20:46:05.910Z,2.47
2019-05-17T20:49:11.187Z,2.60
2019-05-17T20:52:16.559Z,2.70
2019-05-17T20:55:23.307Z,2.70
2019-05-17T20:58:28.579Z,2.20
2019-05-17T21:01:33.346Z,2.37
2019-05-17T21:04:38.188Z,2.33
2019-05-17T21:07:43.161Z,2.37
2019-05-17T21:10:47.967Z,2.40
2019-05-17T21:13:52.763Z,2.17
2019-05-17T21:16:57.624Z,2.20
2019-05-17T21:20:02.543Z,2.20
2019-05-17T21:23:07.877Z,2.00
2019-05-17T21:26:12.724Z,2.27
2019-05-17T21:29:17.562Z,1.97
2019-05-17T21:32:22.284Z,1.80
2019-05-17T21:35:27.425Z,2.10
2019-05-17T21:38:35.676Z,2.07
2019-05-17T21:41:40.461Z,2.10
2019-05-17T21:44:45.225Z,2.00
2019-05-17T21:47:50.335Z,1.77
2019-05-17T21:50:55.103Z,1.87
2019-05-17T21:53:59.895Z,2.13
2019-05-17T21:57:04.922Z,2.13
2019-05-17T22:00:12.711Z,1.70
2019-05-17T22:03:22.520Z,1.97
2019-05-17T22:06:27.675Z,2.00
2019-05-17T22:09:32.560Z,1.80
2019-05-17T22:12:37.534Z,2.50
2019-05-17T22:15:42.972Z,2.43
2019-05-17T22:18:47.801Z,2.50
2019-05-17T22:21:52.648Z,2.20
2019-05-17T22:24:57.399Z,2.50
2019-05-17T22:28:02.187Z,2.13
2019-05-17T22:31:07.297Z,1.87
2019-05-17T22:34:12.125Z,1.90
2019-05-17T22:37:17.744Z,2.57
2019-05-17T22:40:22.514Z,2.20
2019-05-17T22:43:27.593Z,2.47
2019-05-17T22:46:36.458Z,2.70
2019-05-17T22:49:40.302Z,2.40
2019-05-17T22:52:46.274Z,2.50
2019-05-17T22:55:51.022Z,2.63
2019-05-17T22:58:56.475Z,2.50
2019-05-17T23:02:01.347Z,2.50
2019-05-17T23:05:06.543Z,3.10
2019-05-17T23:08:11.378Z,3.30
2019-05-17T23:11:16.159Z,3.77
2019-05-17T23:14:21.258Z,3.40
2019-05-17T23:17:26.342Z,3.60
2019-05-17T23:20:31.413Z,3.73
2019-05-17T23:23:36.668Z,3.47
2019-05-17T23:26:41.432Z,2.87
2019-05-17T23:29:46.520Z,2.80
2019-05-17T23:32:51.261Z,2.57
2019-05-17T23:35:56.584Z,2.10
2019-05-17T23:39:01.501Z,2.17
2019-05-17T23:42:07.867Z,1.63
2019-05-17T23:45:12.974Z,1.97
2019-05-17T23:48:17.743Z,1.90
2019-05-17T23:51:22.560Z,1.90
2019-05-17T23:54:27.602Z,1.90
2019-05-17T23:57:32.480Z,2.00
